createdAt,value
2019-02-25T00:00:16.575Z,0
2019-02-25T00:01:26.357Z,0
2019-02-25T00:02:36.025Z,0
2019-02-25T00:03:45.137Z,0
2019-02-25T00:04:54.737Z,0
2019-02-25T00:06:04.528Z,0
2019-02-25T00:07:14.149Z,0
2019-02-25T00:08:23.482Z,0
2019-02-25T00:09:32.961Z,0
2019-02-25T00:10:42.506Z,0
2019-02-25T00:11:51.966Z,0
2019-02-25T00:13:00.989Z,0
2019-02-25T00:14:10.630Z,0
2019-02-25T00:15:20.674Z,0
2019-02-25T00:16:30.286Z,0
2019-02-25T00:17:39.284Z,0
2019-02-25T00:18:48.851Z,0
2019-02-25T00:19:58.415Z,0
2019-02-25T00:21:07.975Z,0
2019-02-25T00:22:17.129Z,0
2019-02-25T00:23:26.821Z,0
2019-02-25T00:24:36.399Z,0
2019-02-25T00:25:46.019Z,0
2019-02-25T00:26:55.320Z,0
2019-02-25T00:28:04.091Z,0
2019-02-25T00:29:13.207Z,0
2019-02-25T00:30:24.575Z,0
2019-02-25T00:31:35.257Z,0
2019-02-25T00:32:45.000Z,0
2019-02-25T00:33:54.496Z,0
2019-02-25T00:35:04.479Z,0
2019-02-25T00:36:13.961Z,0
2019-02-25T00:37:23.493Z,0
2019-02-25T00:38:33.229Z,0
2019-02-25T00:39:42.337Z,0
2019-02-25T00:40:52.485Z,0
2019-02-25T00:42:01.807Z,0
2019-02-25T00:43:11.564Z,0
2019-02-25T00:44:21.594Z,0
2019-02-25T00:45:31.031Z,0
2019-02-25T00:46:40.859Z,0
2019-02-25T00:47:50.172Z,0
2019-02-25T00:48:59.815Z,0
2019-02-25T00:50:09.639Z,0
2019-02-25T00:51:19.280Z,0
2019-02-25T00:52:28.779Z,0
2019-02-25T00:53:37.893Z,0
2019-02-25T00:54:47.066Z,0
2019-02-25T00:55:56.543Z,0
2019-02-25T00:57:05.663Z,0
2019-02-25T00:58:16.318Z,0
2019-02-25T00:59:25.802Z,0
2019-02-25T01:00:35.381Z,0
2019-02-25T01:01:44.610Z,0
2019-02-25T01:02:53.656Z,0
2019-02-25T01:04:02.745Z,0
2019-02-25T01:05:12.353Z,0
2019-02-25T01:06:21.964Z,0
2019-02-25T01:07:31.566Z,0
2019-02-25T01:08:40.977Z,0
2019-02-25T01:09:50.040Z,0
2019-02-25T01:10:59.312Z,0
2019-02-25T01:12:08.893Z,0
2019-02-25T01:13:18.265Z,0
2019-02-25T01:14:27.680Z,0
2019-02-25T01:15:37.070Z,0
2019-02-25T01:16:46.480Z,0
2019-02-25T01:17:56.243Z,0
2019-02-25T01:19:07.661Z,0
2019-02-25T01:20:17.236Z,0
2019-02-25T01:21:26.654Z,0
2019-02-25T01:22:35.945Z,0
2019-02-25T01:23:45.567Z,0
2019-02-25T01:24:56.105Z,0
2019-02-25T01:26:05.483Z,0
2019-02-25T01:27:14.540Z,0
2019-02-25T01:28:24.167Z,0
2019-02-25T01:29:33.633Z,0
2019-02-25T01:30:43.407Z,0
2019-02-25T01:31:53.187Z,0
2019-02-25T01:33:02.531Z,0
2019-02-25T01:34:12.079Z,0
2019-02-25T01:35:21.655Z,0
2019-02-25T01:36:30.885Z,0
2019-02-25T01:37:40.171Z,0
2019-02-25T01:38:49.853Z,0
2019-02-25T01:39:58.980Z,0
2019-02-25T01:41:08.125Z,0
2019-02-25T01:42:17.786Z,0
2019-02-25T01:43:27.600Z,0
2019-02-25T01:44:37.182Z,0
2019-02-25T01:45:46.622Z,0
2019-02-25T01:46:55.725Z,0
2019-02-25T01:48:05.064Z,0
2019-02-25T01:49:14.696Z,0
2019-02-25T01:50:24.566Z,0
2019-02-25T01:51:34.229Z,0
2019-02-25T01:52:43.986Z,0
2019-02-25T01:53:53.086Z,0
2019-02-25T01:55:02.503Z,0
2019-02-25T01:56:12.255Z,0
2019-02-25T01:57:21.848Z,0
2019-02-25T01:58:31.630Z,0
2019-02-25T01:59:40.980Z,0
2019-02-25T02:00:51.126Z,0
2019-02-25T02:02:00.978Z,0
2019-02-25T02:03:10.600Z,0
2019-02-25T02:04:20.011Z,0
2019-02-25T02:05:31.673Z,0
2019-02-25T02:06:40.728Z,0
2019-02-25T02:07:49.668Z,0
2019-02-25T02:08:59.380Z,0
2019-02-25T02:10:09.033Z,0
2019-02-25T02:11:18.189Z,0
2019-02-25T02:12:27.562Z,0
2019-02-25T02:13:39.966Z,0
2019-02-25T02:14:50.058Z,0
2019-02-25T02:15:59.614Z,0
2019-02-25T02:17:09.317Z,0
2019-02-25T02:18:18.680Z,0
2019-02-25T02:19:28.021Z,0
2019-02-25T02:20:37.193Z,0
2019-02-25T02:21:47.123Z,0
2019-02-25T02:22:56.418Z,0
2019-02-25T02:24:06.170Z,0
2019-02-25T02:25:16.028Z,0
2019-02-25T02:26:25.825Z,0
2019-02-25T02:27:35.394Z,0
2019-02-25T02:28:44.961Z,0
2019-02-25T02:29:54.717Z,0
2019-02-25T02:31:04.172Z,0
2019-02-25T02:32:14.035Z,0
2019-02-25T02:33:23.901Z,0
2019-02-25T02:34:33.676Z,0
2019-02-25T02:35:43.902Z,0
2019-02-25T02:36:53.923Z,0
2019-02-25T02:38:02.872Z,0
2019-02-25T02:39:12.486Z,0
2019-02-25T02:40:22.309Z,0
2019-02-25T02:41:32.076Z,0
2019-02-25T02:42:41.609Z,0
2019-02-25T02:43:51.442Z,0
2019-02-25T02:45:00.943Z,0
2019-02-25T02:46:10.686Z,0
2019-02-25T02:47:19.832Z,0
2019-02-25T02:48:29.367Z,0
2019-02-25T02:49:39.250Z,0
2019-02-25T02:50:48.917Z,0
2019-02-25T02:51:58.525Z,0
2019-02-25T02:53:08.373Z,0
2019-02-25T02:54:18.010Z,0
2019-02-25T02:55:27.849Z,0
2019-02-25T02:56:37.411Z,0
2019-02-25T02:57:46.721Z,0
2019-02-25T02:58:56.624Z,0
2019-02-25T03:00:05.696Z,0
2019-02-25T03:01:15.288Z,0
2019-02-25T03:02:25.395Z,0
2019-02-25T03:03:34.748Z,0
2019-02-25T03:04:43.874Z,0
2019-02-25T03:05:53.452Z,0
2019-02-25T03:07:03.357Z,0
2019-02-25T03:08:12.790Z,0
2019-02-25T03:09:21.937Z,0
2019-02-25T03:10:31.541Z,0
2019-02-25T03:11:40.969Z,0
2019-02-25T03:12:51.017Z,0
2019-02-25T03:14:00.045Z,0
2019-02-25T03:15:09.481Z,0
2019-02-25T03:16:19.187Z,0
2019-02-25T03:17:28.252Z,0
2019-02-25T03:18:37.637Z,0
2019-02-25T03:19:47.852Z,0
2019-02-25T03:20:57.564Z,0
2019-02-25T03:22:07.149Z,0
2019-02-25T03:23:17.032Z,0
2019-02-25T03:24:26.925Z,0
2019-02-25T03:25:35.718Z,0
2019-02-25T03:26:44.772Z,0
2019-02-25T03:27:54.375Z,0
2019-02-25T03:29:04.046Z,0
2019-02-25T03:30:14.073Z,0
2019-02-25T03:31:23.796Z,0
2019-02-25T03:32:33.693Z,0
2019-02-25T03:33:43.815Z,0
2019-02-25T03:34:53.400Z,0
2019-02-25T03:36:02.997Z,0
2019-02-25T03:37:12.609Z,0
2019-02-25T03:38:22.192Z,0
2019-02-25T03:39:31.640Z,0
2019-02-25T03:40:41.399Z,0
2019-02-25T03:41:50.736Z,0
2019-02-25T03:42:59.816Z,0
2019-02-25T03:44:09.074Z,0
2019-02-25T03:45:18.155Z,0
2019-02-25T03:46:27.706Z,0
2019-02-25T03:47:37.247Z,0
2019-02-25T03:48:46.279Z,0
2019-02-25T03:49:55.380Z,0
2019-02-25T03:51:05.319Z,0
2019-02-25T03:52:15.792Z,0
2019-02-25T03:53:25.427Z,0
2019-02-25T03:54:35.255Z,0
2019-02-25T03:55:45.159Z,0
2019-02-25T03:56:54.802Z,0
2019-02-25T03:58:04.667Z,0
2019-02-25T03:59:14.783Z,0
2019-02-25T04:00:24.698Z,0
2019-02-25T04:01:34.048Z,0
2019-02-25T04:02:43.889Z,0
2019-02-25T04:03:53.434Z,0
2019-02-25T04:05:02.934Z,0
2019-02-25T04:06:12.473Z,0
2019-02-25T04:07:21.556Z,0
2019-02-25T04:08:31.365Z,0
2019-02-25T04:09:41.091Z,0
2019-02-25T04:10:50.601Z,0
2019-02-25T04:12:00.540Z,0
2019-02-25T04:13:10.612Z,0
2019-02-25T04:14:20.262Z,0
2019-02-25T04:15:29.943Z,0
2019-02-25T04:16:39.056Z,0
2019-02-25T04:17:48.673Z,0
2019-02-25T04:18:58.538Z,0
2019-02-25T04:20:07.884Z,0
2019-02-25T04:21:17.731Z,0
2019-02-25T04:22:27.392Z,0
2019-02-25T04:23:36.684Z,0
2019-02-25T04:24:45.751Z,0
2019-02-25T04:25:55.921Z,0
2019-02-25T04:27:05.054Z,0
2019-02-25T04:28:14.420Z,0
2019-02-25T04:29:23.718Z,0
2019-02-25T04:30:33.869Z,0
2019-02-25T04:31:43.777Z,0
2019-02-25T04:32:53.110Z,0
2019-02-25T04:34:02.435Z,0
2019-02-25T04:35:11.724Z,0
2019-02-25T04:36:21.074Z,0
2019-02-25T04:37:30.628Z,0
2019-02-25T04:38:40.271Z,0
2019-02-25T04:39:50.113Z,0
2019-02-25T04:40:59.464Z,0
2019-02-25T04:42:09.143Z,0
2019-02-25T04:43:18.471Z,0
2019-02-25T04:44:27.828Z,0
2019-02-25T04:45:37.357Z,0
2019-02-25T04:46:47.281Z,0
2019-02-25T04:47:56.615Z,0
2019-02-25T04:49:06.044Z,0
2019-02-25T04:50:15.391Z,0
2019-02-25T04:51:25.085Z,0
2019-02-25T04:52:35.221Z,0
2019-02-25T04:53:44.549Z,0
2019-02-25T04:54:53.923Z,0
2019-02-25T04:56:04.041Z,0
2019-02-25T04:57:13.171Z,0
2019-02-25T04:58:23.033Z,0
2019-02-25T04:59:32.438Z,0
2019-02-25T05:00:42.011Z,0
2019-02-25T05:01:51.288Z,0
2019-02-25T05:03:00.411Z,0
2019-02-25T05:04:10.302Z,0
2019-02-25T05:05:19.957Z,0
2019-02-25T05:06:29.723Z,0
2019-02-25T05:07:38.558Z,0
2019-02-25T05:08:48.191Z,0
2019-02-25T05:09:57.491Z,0
2019-02-25T05:11:07.623Z,0
2019-02-25T05:12:16.926Z,0
2019-02-25T05:13:26.471Z,0
2019-02-25T05:14:36.022Z,0
2019-02-25T05:15:45.316Z,0
2019-02-25T05:16:54.634Z,0
2019-02-25T05:18:03.410Z,0
2019-02-25T05:19:12.942Z,0
2019-02-25T05:20:22.465Z,0
2019-02-25T05:21:31.902Z,0
2019-02-25T05:22:42.551Z,0
2019-02-25T05:23:51.842Z,0
2019-02-25T05:25:01.371Z,0
2019-02-25T05:26:10.947Z,0
2019-02-25T05:27:20.539Z,0
2019-02-25T05:28:30.181Z,0
2019-02-25T05:29:38.971Z,0
2019-02-25T05:30:48.317Z,0
2019-02-25T05:31:57.870Z,0
2019-02-25T05:33:07.466Z,0
2019-02-25T05:34:17.549Z,0
2019-02-25T05:35:26.853Z,0
2019-02-25T05:36:36.674Z,0
2019-02-25T05:37:46.279Z,0
2019-02-25T05:38:55.540Z,0
2019-02-25T05:40:05.985Z,0
2019-02-25T05:41:15.823Z,0
2019-02-25T05:42:25.801Z,0
2019-02-25T05:43:35.587Z,0
2019-02-25T05:44:44.807Z,0
2019-02-25T05:45:54.539Z,0
2019-02-25T05:47:03.830Z,0
2019-02-25T05:48:13.707Z,0
2019-02-25T05:49:22.996Z,0
2019-02-25T05:50:32.344Z,0
2019-02-25T05:51:41.437Z,0
2019-02-25T05:52:50.294Z,0
2019-02-25T05:53:59.581Z,0
2019-02-25T05:55:09.586Z,0
2019-02-25T05:56:18.938Z,0
2019-02-25T05:57:28.970Z,0
2019-02-25T05:58:38.809Z,0
2019-02-25T05:59:47.820Z,0
2019-02-25T06:00:57.925Z,0
2019-02-25T06:02:07.706Z,0
2019-02-25T06:03:16.753Z,0
2019-02-25T06:04:26.108Z,0
2019-02-25T06:05:35.124Z,0
2019-02-25T06:06:44.233Z,0
2019-02-25T06:07:53.532Z,0
2019-02-25T06:09:03.618Z,0
2019-02-25T06:10:12.940Z,0
2019-02-25T06:11:23.028Z,0
2019-02-25T06:12:32.788Z,0
2019-02-25T06:13:42.830Z,0
2019-02-25T06:14:52.631Z,0
2019-02-25T06:16:02.401Z,0
2019-02-25T06:17:11.403Z,0
2019-02-25T06:18:20.957Z,0
2019-02-25T06:19:30.515Z,0
2019-02-25T06:20:39.985Z,0
2019-02-25T06:21:48.769Z,0
2019-02-25T06:22:58.315Z,0
2019-02-25T06:24:07.674Z,0
2019-02-25T06:25:17.009Z,0
2019-02-25T06:26:26.532Z,0
2019-02-25T06:27:37.714Z,0
2019-02-25T06:28:47.065Z,0
2019-02-25T06:29:56.433Z,0
2019-02-25T06:31:05.951Z,0
2019-02-25T06:32:14.998Z,0
2019-02-25T06:33:24.597Z,0
2019-02-25T06:34:33.623Z,0
2019-02-25T06:35:42.936Z,0
2019-02-25T06:36:52.445Z,0
2019-02-25T06:38:02.595Z,0
2019-02-25T06:39:11.846Z,0
2019-02-25T06:40:23.188Z,0
2019-02-25T06:41:33.038Z,0
2019-02-25T06:42:42.780Z,0
2019-02-25T06:43:52.534Z,0
2019-02-25T06:45:02.015Z,0
2019-02-25T06:46:11.483Z,0
2019-02-25T06:47:20.693Z,0
2019-02-25T06:48:30.125Z,0
2019-02-25T06:49:39.898Z,0
2019-02-25T06:50:49.168Z,4
2019-02-25T06:51:58.674Z,4
2019-02-25T06:53:07.991Z,4
2019-02-25T06:54:17.207Z,4
2019-02-25T06:55:26.949Z,4
2019-02-25T06:56:36.730Z,4
2019-02-25T06:57:46.267Z,4
2019-02-25T06:58:55.535Z,4
2019-02-25T07:00:04.907Z,4
2019-02-25T07:01:14.463Z,4
2019-02-25T07:02:23.784Z,4
2019-02-25T07:03:33.555Z,4
2019-02-25T07:04:43.104Z,4
2019-02-25T07:05:52.674Z,4
2019-02-25T07:07:02.045Z,4
2019-02-25T07:08:11.040Z,4
2019-02-25T07:09:20.534Z,0
2019-02-25T07:10:29.822Z,0
2019-02-25T07:11:39.119Z,0
2019-02-25T07:12:48.724Z,0
2019-02-25T07:13:58.242Z,4
2019-02-25T07:15:07.828Z,4
2019-02-25T07:16:17.370Z,4
2019-02-25T07:17:27.430Z,4
2019-02-25T07:18:37.006Z,4
2019-02-25T07:19:46.304Z,4
2019-02-25T07:20:55.671Z,4
2019-02-25T07:22:05.934Z,4
2019-02-25T07:23:14.844Z,4
2019-02-25T07:24:24.445Z,4
2019-02-25T07:25:33.754Z,4
2019-02-25T07:26:42.980Z,4
2019-02-25T07:27:52.577Z,8
2019-02-25T07:29:03.437Z,8
2019-02-25T07:30:13.101Z,8
2019-02-25T07:31:22.944Z,4
2019-02-25T07:32:32.467Z,4
2019-02-25T07:33:41.963Z,4
2019-02-25T07:34:51.490Z,4
2019-02-25T07:36:01.220Z,4
2019-02-25T07:37:10.039Z,4
2019-02-25T07:38:19.359Z,4
2019-02-25T07:39:28.463Z,4
2019-02-25T07:40:37.640Z,8
2019-02-25T07:41:47.220Z,8
2019-02-25T07:42:56.227Z,8
2019-02-25T07:44:05.591Z,8
2019-02-25T07:45:15.201Z,8
2019-02-25T07:46:24.545Z,8
2019-02-25T07:47:33.855Z,8
2019-02-25T07:48:44.873Z,8
2019-02-25T07:49:53.947Z,8
2019-02-25T07:51:03.083Z,4
2019-02-25T07:52:12.097Z,4
2019-02-25T07:53:21.453Z,4
2019-02-25T07:54:30.496Z,8
2019-02-25T07:55:39.737Z,8
2019-02-25T07:56:48.817Z,8
2019-02-25T07:57:57.942Z,8
2019-02-25T07:59:07.297Z,8
2019-02-25T08:00:17.084Z,8
2019-02-25T08:01:26.179Z,8
2019-02-25T08:02:35.721Z,8
2019-02-25T08:03:45.417Z,12
2019-02-25T08:04:55.260Z,12
2019-02-25T08:06:04.595Z,8
2019-02-25T08:07:13.411Z,8
2019-02-25T08:08:22.968Z,8
2019-02-25T08:09:32.291Z,8
2019-02-25T08:10:41.824Z,8
2019-02-25T08:11:51.090Z,12
2019-02-25T08:13:00.086Z,12
2019-02-25T08:14:09.403Z,12
2019-02-25T08:15:18.984Z,12
2019-02-25T08:16:28.005Z,8
2019-02-25T08:17:37.798Z,8
2019-02-25T08:18:47.342Z,8
2019-02-25T08:19:57.486Z,12
2019-02-25T08:21:07.093Z,12
2019-02-25T08:22:16.192Z,12
2019-02-25T08:23:25.831Z,12
2019-02-25T08:24:38.185Z,12
2019-02-25T08:25:48.238Z,12
2019-02-25T08:26:59.510Z,12
2019-02-25T08:28:08.843Z,12
2019-02-25T08:29:18.170Z,12
2019-02-25T08:30:27.951Z,12
2019-02-25T08:31:37.490Z,12
2019-02-25T08:32:46.601Z,12
2019-02-25T08:33:58.004Z,16
2019-02-25T08:35:07.066Z,12
2019-02-25T08:36:16.501Z,16
2019-02-25T08:37:26.173Z,16
2019-02-25T08:38:35.850Z,16
2019-02-25T08:39:45.860Z,16
2019-02-25T08:40:55.627Z,16
2019-02-25T08:42:05.234Z,16
2019-02-25T08:43:15.198Z,20
2019-02-25T08:44:24.885Z,20
2019-02-25T08:45:34.683Z,20
2019-02-25T08:46:44.106Z,20
2019-02-25T08:47:53.503Z,20
2019-02-25T08:49:02.969Z,20
2019-02-25T08:50:12.037Z,20
2019-02-25T08:51:21.709Z,20
2019-02-25T08:52:31.342Z,16
2019-02-25T08:53:40.728Z,20
2019-02-25T08:54:50.655Z,20
2019-02-25T08:56:00.604Z,20
2019-02-25T08:57:09.931Z,20
2019-02-25T08:58:19.463Z,20
2019-02-25T08:59:29.315Z,16
2019-02-25T09:00:38.488Z,16
2019-02-25T09:01:47.613Z,20
2019-02-25T09:02:57.808Z,20
2019-02-25T09:04:07.311Z,20
2019-02-25T09:05:16.926Z,16
2019-02-25T09:06:26.273Z,20
2019-02-25T09:07:39.292Z,20
2019-02-25T09:08:52.031Z,20
2019-02-25T09:10:01.940Z,20
2019-02-25T09:11:21.018Z,24
2019-02-25T09:12:30.865Z,20
2019-02-25T09:13:39.803Z,24
2019-02-25T09:14:49.448Z,28
2019-02-25T09:15:59.516Z,28
2019-02-25T09:17:08.877Z,28
2019-02-25T09:18:18.230Z,28
2019-02-25T09:19:39.828Z,28
2019-02-25T09:20:49.446Z,36
2019-02-25T09:21:58.845Z,36
2019-02-25T09:23:08.680Z,36
2019-02-25T09:24:18.303Z,36
2019-02-25T09:25:28.111Z,40
2019-02-25T09:26:37.713Z,40
2019-02-25T09:27:47.094Z,40
2019-02-25T09:28:57.337Z,48
2019-02-25T09:30:07.118Z,48
2019-02-25T09:31:16.646Z,48
2019-02-25T09:32:26.076Z,48
2019-02-25T09:33:35.909Z,52
2019-02-25T09:34:47.003Z,52
2019-02-25T09:35:57.086Z,52
2019-02-25T09:37:06.903Z,56
2019-02-25T09:38:16.160Z,56
2019-02-25T09:39:25.780Z,56
2019-02-25T09:40:35.546Z,60
2019-02-25T09:41:45.151Z,60
2019-02-25T09:42:54.515Z,64
2019-02-25T09:44:04.151Z,60
2019-02-25T09:45:13.591Z,60
2019-02-25T09:46:22.692Z,64
2019-02-25T09:47:31.968Z,64
2019-02-25T09:48:41.041Z,64
2019-02-25T09:49:51.111Z,68
2019-02-25T09:51:01.224Z,68
2019-02-25T09:52:10.655Z,72
2019-02-25T09:53:20.310Z,72
2019-02-25T09:54:29.413Z,76
2019-02-25T09:55:38.729Z,72
2019-02-25T09:56:48.380Z,76
2019-02-25T09:57:57.614Z,76
2019-02-25T09:59:06.916Z,76
2019-02-25T10:00:16.725Z,76
2019-02-25T10:01:26.127Z,76
2019-02-25T10:02:34.979Z,76
2019-02-25T10:03:44.558Z,80
2019-02-25T10:04:53.387Z,80
2019-02-25T10:06:02.569Z,76
2019-02-25T10:07:11.916Z,76
2019-02-25T10:08:21.307Z,72
2019-02-25T10:09:37.150Z,76
2019-02-25T10:10:46.612Z,76
2019-02-25T10:11:56.171Z,72
2019-02-25T10:13:05.205Z,72
2019-02-25T10:14:14.793Z,72
2019-02-25T10:15:24.640Z,72
2019-02-25T10:16:34.315Z,72
2019-02-25T10:17:43.728Z,72
2019-02-25T10:18:53.385Z,68
2019-02-25T10:20:03.007Z,72
2019-02-25T10:21:12.485Z,68
2019-02-25T10:22:21.869Z,68
2019-02-25T10:23:31.667Z,68
2019-02-25T10:24:42.414Z,64
2019-02-25T10:25:52.000Z,68
2019-02-25T10:27:01.343Z,64
2019-02-25T10:28:10.626Z,64
2019-02-25T10:29:20.159Z,64
2019-02-25T10:30:29.444Z,60
2019-02-25T10:31:43.638Z,64
2019-02-25T10:32:53.014Z,60
2019-02-25T10:34:02.264Z,60
2019-02-25T10:35:11.859Z,60
2019-02-25T10:36:22.063Z,56
2019-02-25T10:37:31.625Z,56
2019-02-25T10:38:42.299Z,56
2019-02-25T10:39:54.499Z,56
2019-02-25T10:41:05.890Z,60
2019-02-25T10:42:15.124Z,56
2019-02-25T10:43:25.957Z,56
2019-02-25T10:44:42.743Z,56
2019-02-25T10:45:52.542Z,52
2019-02-25T10:47:01.376Z,52
2019-02-25T10:48:10.861Z,52
2019-02-25T10:49:22.848Z,52
2019-02-25T10:50:41.022Z,52
2019-02-25T10:51:52.919Z,52
2019-02-25T10:53:10.903Z,52
2019-02-25T10:54:29.944Z,48
2019-02-25T10:55:39.995Z,52
2019-02-25T10:57:00.280Z,48
2019-02-25T10:58:10.783Z,44
2019-02-25T10:59:20.916Z,48
2019-02-25T11:00:29.761Z,44
2019-02-25T11:01:43.233Z,44
2019-02-25T11:03:00.821Z,44
2019-02-25T11:04:10.433Z,44
2019-02-25T11:05:23.643Z,44
2019-02-25T11:06:42.192Z,44
2019-02-25T11:07:51.872Z,40
2019-02-25T11:09:01.235Z,40
2019-02-25T11:10:11.981Z,40
2019-02-25T11:11:29.653Z,40
2019-02-25T11:12:40.487Z,40
2019-02-25T11:13:50.437Z,36
2019-02-25T11:14:59.950Z,40
2019-02-25T11:16:09.784Z,36
2019-02-25T11:17:27.266Z,36
2019-02-25T11:18:37.061Z,36
2019-02-25T11:19:47.828Z,32
2019-02-25T11:20:58.955Z,36
2019-02-25T11:22:18.929Z,36
2019-02-25T11:23:28.491Z,36
2019-02-25T11:24:38.084Z,32
2019-02-25T11:25:47.613Z,32
2019-02-25T11:27:01.046Z,36
2019-02-25T11:28:28.543Z,32
2019-02-25T11:29:46.736Z,32
2019-02-25T11:31:00.291Z,32
2019-02-25T11:32:09.599Z,28
2019-02-25T11:33:18.917Z,28
2019-02-25T11:34:34.102Z,28
2019-02-25T11:35:52.421Z,28
2019-02-25T11:37:04.941Z,24
2019-02-25T11:38:14.510Z,28
2019-02-25T11:39:25.215Z,24
2019-02-25T11:40:43.160Z,24
2019-02-25T11:41:52.759Z,24
2019-02-25T11:43:02.351Z,24
2019-02-25T11:44:12.124Z,20
2019-02-25T11:45:21.463Z,20
2019-02-25T11:46:30.537Z,20
2019-02-25T11:47:39.582Z,20
2019-02-25T11:48:49.178Z,20
2019-02-25T11:49:58.012Z,20
2019-02-25T11:51:08.024Z,20
2019-02-25T11:52:17.774Z,20
2019-02-25T11:53:27.124Z,16
2019-02-25T11:54:36.154Z,16
2019-02-25T11:55:45.400Z,16
2019-02-25T11:56:54.918Z,16
2019-02-25T11:58:04.286Z,16
2019-02-25T11:59:14.117Z,16
2019-02-25T12:00:23.214Z,16
2019-02-25T12:01:32.758Z,16
2019-02-25T12:02:41.841Z,16
2019-02-25T12:03:51.719Z,16
2019-02-25T12:05:01.046Z,20
2019-02-25T12:06:10.612Z,20
2019-02-25T12:07:20.317Z,24
2019-02-25T12:08:30.379Z,24
2019-02-25T12:09:40.696Z,28
2019-02-25T12:10:50.191Z,24
2019-02-25T12:11:59.480Z,28
2019-02-25T12:13:08.843Z,28
2019-02-25T12:14:18.213Z,28
2019-02-25T12:15:28.362Z,24
2019-02-25T12:16:37.986Z,28
2019-02-25T12:17:47.313Z,28
2019-02-25T12:18:56.666Z,28
2019-02-25T12:20:05.953Z,28
2019-02-25T12:21:15.282Z,32
2019-02-25T12:22:24.624Z,28
2019-02-25T12:23:34.388Z,32
2019-02-25T12:24:43.672Z,28
2019-02-25T12:25:52.952Z,32
2019-02-25T12:27:02.058Z,32
2019-02-25T12:28:11.629Z,32
2019-02-25T12:29:21.321Z,32
2019-02-25T12:30:30.362Z,32
2019-02-25T12:31:39.870Z,32
2019-02-25T12:32:49.671Z,32
2019-02-25T12:33:58.694Z,36
2019-02-25T12:35:08.224Z,32
2019-02-25T12:36:18.656Z,32
2019-02-25T12:37:28.166Z,36
2019-02-25T12:38:37.469Z,36
2019-02-25T12:39:47.255Z,36
2019-02-25T12:40:56.648Z,36
2019-02-25T12:42:06.428Z,32
2019-02-25T12:43:16.012Z,36
2019-02-25T12:44:25.337Z,36
2019-02-25T12:45:35.153Z,36
2019-02-25T12:46:44.698Z,36
2019-02-25T12:47:54.024Z,36
2019-02-25T12:49:03.900Z,36
2019-02-25T12:50:13.779Z,40
2019-02-25T12:51:23.127Z,36
2019-02-25T12:52:32.639Z,40
2019-02-25T12:53:42.808Z,36
2019-02-25T12:54:51.806Z,36
2019-02-25T12:56:01.616Z,36
2019-02-25T12:57:11.394Z,36
2019-02-25T12:58:20.690Z,36
2019-02-25T12:59:30.249Z,40
2019-02-25T13:00:39.624Z,40
2019-02-25T13:01:49.418Z,40
2019-02-25T13:03:00.061Z,44
2019-02-25T13:04:10.802Z,44
2019-02-25T13:05:20.267Z,44
2019-02-25T13:06:29.626Z,44
2019-02-25T13:07:39.704Z,52
2019-02-25T13:08:49.229Z,52
2019-02-25T13:09:58.557Z,52
2019-02-25T13:11:07.827Z,52
2019-02-25T13:12:17.156Z,52
2019-02-25T13:13:26.553Z,56
2019-02-25T13:14:36.086Z,52
2019-02-25T13:15:45.217Z,56
2019-02-25T13:16:54.513Z,56
2019-02-25T13:18:05.221Z,56
2019-02-25T13:19:15.191Z,60
2019-02-25T13:20:24.323Z,60
2019-02-25T13:21:33.309Z,60
2019-02-25T13:22:43.481Z,60
2019-02-25T13:23:54.691Z,60
2019-02-25T13:25:15.788Z,68
2019-02-25T13:26:27.041Z,64
2019-02-25T13:27:38.696Z,68
2019-02-25T13:28:49.797Z,68
2019-02-25T13:29:59.856Z,68
2019-02-25T13:31:14.865Z,72
2019-02-25T13:32:25.334Z,72
2019-02-25T13:33:34.898Z,72
2019-02-25T13:34:44.697Z,72
2019-02-25T13:35:56.939Z,76
2019-02-25T13:37:07.145Z,72
2019-02-25T13:38:16.856Z,72
2019-02-25T13:39:26.578Z,76
2019-02-25T13:40:35.839Z,76
2019-02-25T13:41:45.581Z,76
2019-02-25T13:42:55.052Z,80
2019-02-25T13:44:04.759Z,76
2019-02-25T13:45:14.078Z,80
2019-02-25T13:46:23.805Z,80
2019-02-25T13:47:32.977Z,84
2019-02-25T13:48:42.659Z,84
2019-02-25T13:49:52.310Z,84
2019-02-25T13:51:02.971Z,84
2019-02-25T13:52:12.722Z,88
2019-02-25T13:53:22.408Z,88
2019-02-25T13:54:34.113Z,88
2019-02-25T13:55:43.519Z,92
2019-02-25T13:56:53.263Z,88
2019-02-25T13:58:05.126Z,92
2019-02-25T13:59:14.833Z,92
2019-02-25T14:00:24.577Z,96
2019-02-25T14:01:35.876Z,96
2019-02-25T14:02:45.277Z,92
2019-02-25T14:03:54.931Z,92
2019-02-25T14:05:04.576Z,96
2019-02-25T14:06:13.944Z,96
2019-02-25T14:07:23.156Z,100
2019-02-25T14:08:32.275Z,100
2019-02-25T14:09:42.522Z,100
2019-02-25T14:10:52.236Z,100
2019-02-25T14:12:01.600Z,104
2019-02-25T14:13:11.489Z,104
2019-02-25T14:14:20.615Z,104
2019-02-25T14:15:30.024Z,104
2019-02-25T14:16:39.434Z,108
2019-02-25T14:17:48.706Z,104
2019-02-25T14:18:58.650Z,108
2019-02-25T14:20:08.270Z,108
2019-02-25T14:21:19.436Z,108
2019-02-25T14:22:29.139Z,108
2019-02-25T14:23:44.798Z,104
2019-02-25T14:24:54.416Z,96
2019-02-25T14:26:05.750Z,92
2019-02-25T14:27:16.674Z,84
2019-02-25T14:28:26.312Z,76
2019-02-25T14:29:37.725Z,68
2019-02-25T14:30:51.118Z,52
2019-02-25T14:32:00.699Z,40
2019-02-25T14:33:16.701Z,28
2019-02-25T14:34:26.349Z,24
2019-02-25T14:35:35.840Z,16
2019-02-25T14:36:46.336Z,12
2019-02-25T14:38:15.755Z,12
2019-02-25T14:39:38.172Z,8
2019-02-25T14:40:58.719Z,8
2019-02-25T14:42:18.862Z,8
2019-02-25T14:43:45.528Z,8
2019-02-25T14:45:09.179Z,8
2019-02-25T14:46:29.195Z,8
2019-02-25T14:47:49.695Z,12
2019-02-25T14:49:05.540Z,12
2019-02-25T14:50:15.949Z,12
2019-02-25T14:51:25.649Z,12
2019-02-25T14:52:38.356Z,12
2019-02-25T14:53:55.107Z,12
2019-02-25T14:55:11.247Z,8
2019-02-25T14:56:23.553Z,8
2019-02-25T14:57:40.834Z,8
2019-02-25T14:58:54.812Z,8
2019-02-25T15:00:04.722Z,8
2019-02-25T15:01:14.848Z,8
2019-02-25T15:02:26.449Z,8
2019-02-25T15:03:35.934Z,12
2019-02-25T15:04:48.863Z,8
2019-02-25T15:06:02.482Z,8
2019-02-25T15:07:17.732Z,8
2019-02-25T15:08:33.156Z,8
2019-02-25T15:09:48.095Z,8
2019-02-25T15:11:06.585Z,8
2019-02-25T15:12:20.773Z,8
2019-02-25T15:13:40.825Z,8
2019-02-25T15:14:50.437Z,8
2019-02-25T15:16:00.242Z,8
2019-02-25T15:17:16.831Z,8
2019-02-25T15:18:33.545Z,4
2019-02-25T15:19:47.144Z,4
2019-02-25T15:20:58.297Z,8
2019-02-25T15:22:10.787Z,8
2019-02-25T15:23:29.758Z,8
2019-02-25T15:24:39.035Z,8
2019-02-25T15:25:54.067Z,8
2019-02-25T15:27:17.814Z,8
2019-02-25T15:28:29.695Z,8
2019-02-25T15:29:47.204Z,8
2019-02-25T15:30:59.993Z,8
2019-02-25T15:32:11.914Z,8
2019-02-25T15:33:21.206Z,8
2019-02-25T15:34:30.862Z,8
2019-02-25T15:35:46.283Z,4
2019-02-25T15:36:56.392Z,4
2019-02-25T15:38:10.403Z,4
2019-02-25T15:39:19.899Z,4
2019-02-25T15:40:34.308Z,4
2019-02-25T15:41:53.290Z,4
2019-02-25T15:43:04.309Z,4
2019-02-25T15:44:19.667Z,4
2019-02-25T15:45:37.779Z,4
2019-02-25T15:46:49.786Z,4
2019-02-25T15:48:02.734Z,4
2019-02-25T15:49:17.224Z,4
2019-02-25T15:50:31.920Z,4
2019-02-25T15:51:47.509Z,4
2019-02-25T15:53:03.118Z,4
2019-02-25T15:54:17.611Z,4
2019-02-25T15:55:32.159Z,4
2019-02-25T15:56:41.842Z,4
2019-02-25T15:57:51.248Z,4
2019-02-25T15:59:00.789Z,4
2019-02-25T16:00:10.238Z,4
2019-02-25T16:01:19.393Z,4
2019-02-25T16:02:28.912Z,4
2019-02-25T16:03:43.746Z,8
2019-02-25T16:04:53.967Z,8
2019-02-25T16:06:13.066Z,8
2019-02-25T16:07:28.132Z,8
2019-02-25T16:08:40.579Z,4
2019-02-25T16:09:50.090Z,4
2019-02-25T16:11:04.516Z,4
2019-02-25T16:12:16.188Z,4
2019-02-25T16:13:25.800Z,4
2019-02-25T16:14:38.848Z,4
2019-02-25T16:15:50.006Z,4
2019-02-25T16:16:59.880Z,4
2019-02-25T16:18:09.705Z,4
2019-02-25T16:19:23.767Z,4
2019-02-25T16:20:48.395Z,4
2019-02-25T16:22:07.931Z,4
2019-02-25T16:23:22.289Z,4
2019-02-25T16:24:35.069Z,4
2019-02-25T16:25:46.089Z,4
2019-02-25T16:27:06.683Z,0
2019-02-25T16:28:21.906Z,0
2019-02-25T16:29:31.259Z,0
2019-02-25T16:30:44.989Z,0
2019-02-25T16:32:06.570Z,0
2019-02-25T16:33:18.940Z,4
2019-02-25T16:34:28.386Z,4
2019-02-25T16:35:46.593Z,4
2019-02-25T16:37:04.939Z,4
2019-02-25T16:38:14.865Z,4
2019-02-25T16:39:24.349Z,4
2019-02-25T16:40:42.373Z,4
2019-02-25T16:41:54.294Z,4
2019-02-25T16:43:12.825Z,4
2019-02-25T16:44:22.590Z,4
2019-02-25T16:45:45.062Z,0
2019-02-25T16:46:58.837Z,0
2019-02-25T16:48:08.985Z,0
2019-02-25T16:49:18.819Z,0
2019-02-25T16:50:30.276Z,0
2019-02-25T16:51:44.819Z,0
2019-02-25T16:52:57.043Z,0
2019-02-25T16:54:23.578Z,0
2019-02-25T16:55:35.450Z,0
2019-02-25T16:56:45.069Z,0
2019-02-25T16:57:54.895Z,0
2019-02-25T16:59:20.087Z,0
2019-02-25T17:00:41.983Z,0
2019-02-25T17:01:51.599Z,0
2019-02-25T17:03:14.145Z,0
2019-02-25T17:04:34.095Z,0
2019-02-25T17:05:50.548Z,0
2019-02-25T17:07:04.771Z,0
2019-02-25T17:08:17.262Z,0